sensor_id;sensor_type;location;lat;lon;timestamp;pressure;altitude;pressure_sealevel;temperature;humidity
72560;BME280;62987;52.382;9.752;2022-09-27T00:01:38;98635.50;;;13.39;77.40
72560;BME280;62987;52.382;9.752;2022-09-27T00:04:06;98642.53;;;13.40;76.57
72560;BME280;62987;52.382;9.752;2022-09-27T00:06:35;98637.75;;;13.44;76.90
72560;BME280;62987;52.382;9.752;2022-09-27T00:09:08;98636.00;;;13.54;76.04
72560;BME280;62987;52.382;9.752;2022-09-27T00:11:37;98619.03;;;13.34;76.83
72560;BME280;62987;52.382;9.752;2022-09-27T00:14:07;98624.94;;;13.38;76.91
72560;BME280;62987;52.382;9.752;2022-09-27T00:16:37;98630.69;;;13.33;77.21
72560;BME280;62987;52.382;9.752;2022-09-27T00:19:07;98628.44;;;13.29;77.25
72560;BME280;62987;52.382;9.752;2022-09-27T00:21:38;98619.16;;;13.33;77.09
72560;BME280;62987;52.382;9.752;2022-09-27T00:24:08;98616.06;;;13.28;77.08
72560;BME280;62987;52.382;9.752;2022-09-27T00:26:38;98630.91;;;13.20;77.63
72560;BME280;62987;52.382;9.752;2022-09-27T00:29:06;98627.44;;;13.30;77.46
72560;BME280;62987;52.382;9.752;2022-09-27T00:31:34;98619.16;;;13.33;77.33
72560;BME280;62987;52.382;9.752;2022-09-27T00:34:04;98617.75;;;13.29;77.39
72560;BME280;62987;52.382;9.752;2022-09-27T00:36:33;98617.75;;;13.29;77.59
72560;BME280;62987;52.382;9.752;2022-09-27T00:39:03;98612.91;;;13.23;77.86
72560;BME280;62987;52.382;9.752;2022-09-27T00:41:32;98613.84;;;13.42;77.02
72560;BME280;62987;52.382;9.752;2022-09-27T00:44:04;98614.72;;;13.43;77.08
72560;BME280;62987;52.382;9.752;2022-09-27T00:46:36;98611.50;;;13.49;77.46
72560;BME280;62987;52.382;9.752;2022-09-27T00:49:11;98610.97;;;13.55;77.19
72560;BME280;62987;52.382;9.752;2022-09-27T00:51:41;98601.22;;;13.44;77.03
72560;BME280;62987;52.382;9.752;2022-09-27T00:54:16;98604.09;;;13.62;76.66
72560;BME280;62987;52.382;9.752;2022-09-27T00:56:46;98601.41;;;13.52;76.46
72560;BME280;62987;52.382;9.752;2022-09-27T00:59:18;98601.28;;;13.54;76.73
72560;BME280;62987;52.382;9.752;2022-09-27T01:01:48;98593.69;;;13.59;76.68
72560;BME280;62987;52.382;9.752;2022-09-27T01:04:20;98600.81;;;13.49;77.03
72560;BME280;62987;52.382;9.752;2022-09-27T01:06:50;98602.19;;;13.34;77.79
72560;BME280;62987;52.382;9.752;2022-09-27T01:09:20;98603.47;;;13.39;77.44
72560;BME280;62987;52.382;9.752;2022-09-27T01:11:53;98595.25;;;13.31;77.80
72560;BME280;62987;52.382;9.752;2022-09-27T01:14:37;98596.41;;;13.29;77.96
72560;BME280;62987;52.382;9.752;2022-09-27T01:17:16;98591.75;;;13.31;77.87
72560;BME280;62987;52.382;9.752;2022-09-27T01:20:07;98581.34;;;13.28;77.99
72560;BME280;62987;52.382;9.752;2022-09-27T01:22:44;98594.50;;;13.50;77.29
72560;BME280;62987;52.382;9.752;2022-09-27T01:25:38;98583.31;;;13.26;77.84
72560;BME280;62987;52.382;9.752;2022-09-27T01:28:19;98587.84;;;13.35;78.12
72560;BME280;62987;52.382;9.752;2022-09-27T01:30:52;98592.00;;;13.58;76.84
72560;BME280;62987;52.382;9.752;2022-09-27T01:33:30;98587.28;;;13.81;76.55
72560;BME280;62987;52.382;9.752;2022-09-27T01:36:16;98580.34;;;13.69;76.57
72560;BME280;62987;52.382;9.752;2022-09-27T01:38:55;98577.78;;;13.48;77.16
72560;BME280;62987;52.382;9.752;2022-09-27T01:41:35;98579.06;;;13.53;77.07
72560;BME280;62987;52.382;9.752;2022-09-27T01:44:31;98577.50;;;13.51;77.21
72560;BME280;62987;52.382;9.752;2022-09-27T01:47:14;98582.34;;;13.36;77.71
72560;BME280;62987;52.382;9.752;2022-09-27T01:49:52;98579.63;;;13.57;nan
72560;BME280;62987;52.382;9.752;2022-09-27T01:52:25;98562.06;;;13.54;76.96
72560;BME280;62987;52.382;9.752;2022-09-27T01:55:00;98573.44;;;13.56;77.12
72560;BME280;62987;52.382;9.752;2022-09-27T01:57:51;98574.56;;;13.54;77.59
72560;BME280;62987;52.382;9.752;2022-09-27T02:00:24;98576.94;;;13.47;77.28
72560;BME280;62987;52.382;9.752;2022-09-27T02:02:58;98572.28;;;13.49;77.27
72560;BME280;62987;52.382;9.752;2022-09-27T02:05:35;98569.53;;;13.70;76.84
72560;BME280;62987;52.382;9.752;2022-09-27T02:08:22;98569.50;;;13.51;77.51
72560;BME280;62987;52.382;9.752;2022-09-27T02:10:57;98562.69;;;13.37;77.60
72560;BME280;62987;52.382;9.752;2022-09-27T02:13:33;98564.00;;;13.52;77.11
72560;BME280;62987;52.382;9.752;2022-09-27T02:16:31;98566.34;;;13.36;77.76
72560;BME280;62987;52.382;9.752;2022-09-27T02:19:08;98556.53;;;13.16;78.21
72560;BME280;62987;52.382;9.752;2022-09-27T02:21:41;98555.66;;;13.36;77.92
72560;BME280;62987;52.382;9.752;2022-09-27T02:24:13;98555.16;;;13.52;77.21
72560;BME280;62987;52.382;9.752;2022-09-27T02:26:52;98559.09;;;13.48;77.67
72560;BME280;62987;52.382;9.752;2022-09-27T02:29:30;98557.41;;;13.47;77.51
72560;BME280;62987;52.382;9.752;2022-09-27T02:32:01;98557.41;;;13.47;77.79
72560;BME280;62987;52.382;9.752;2022-09-27T02:34:35;98559.94;;;13.58;77.24
72560;BME280;62987;52.382;9.752;2022-09-27T02:37:03;98549.00;;;13.61;77.38
72560;BME280;62987;52.382;9.752;2022-09-27T02:39:32;98551.75;;;13.50;77.33
72560;BME280;62987;52.382;9.752;2022-09-27T02:42:04;98557.09;;;13.40;77.40
72560;BME280;62987;52.382;9.752;2022-09-27T02:44:33;98550.66;;;13.62;76.55
72560;BME280;62987;52.382;9.752;2022-09-27T02:47:10;98552.66;;;13.60;77.09
72560;BME280;62987;52.382;9.752;2022-09-27T02:49:54;98547.69;;;13.55;77.92
72560;BME280;62987;52.382;9.752;2022-09-27T02:53:05;98546.00;;;13.45;77.52
72560;BME280;62987;52.382;9.752;2022-09-27T02:55:50;98541.63;;;13.44;77.11
72560;BME280;62987;52.382;9.752;2022-09-27T02:58:46;98549.56;;;13.65;76.53
72560;BME280;62987;52.382;9.752;2022-09-27T03:01:36;98549.56;;;13.74;76.24
72560;BME280;62987;52.382;9.752;2022-09-27T03:04:14;98548.72;;;13.64;76.38
72560;BME280;62987;52.382;9.752;2022-09-27T03:06:51;98551.56;;;13.72;76.58
72560;BME280;62987;52.382;9.752;2022-09-27T03:09:20;98547.88;;;13.54;77.31
72560;BME280;62987;52.382;9.752;2022-09-27T03:11:49;98556.31;;;13.69;77.00
72560;BME280;62987;52.382;9.752;2022-09-27T03:14:17;98552.66;;;13.60;76.99
72560;BME280;62987;52.382;9.752;2022-09-27T03:17:05;98550.75;;;13.91;76.37
72560;BME280;62987;52.382;9.752;2022-09-27T03:19:52;98549.31;;;13.77;76.45
72560;BME280;62987;52.382;9.752;2022-09-27T03:22:46;98548.75;;;13.83;76.48
72560;BME280;62987;52.382;9.752;2022-09-27T03:25:15;98548.19;;;13.89;76.48
72560;BME280;62987;52.382;9.752;2022-09-27T03:27:43;98550.44;;;13.84;77.76
72560;BME280;62987;52.382;9.752;2022-09-27T03:30:12;98550.16;;;13.78;76.73
72560;BME280;62987;52.382;9.752;2022-09-27T03:32:42;98550.06;;;13.98;76.45
72560;BME280;62987;52.382;9.752;2022-09-27T03:35:30;98541.16;;;13.88;76.72
72560;BME280;62987;52.382;9.752;2022-09-27T03:38:00;98558.34;;;13.95;76.00
72560;BME280;62987;52.382;9.752;2022-09-27T03:40:28;98547.50;;;13.97;76.77
72560;BME280;62987;52.382;9.752;2022-09-27T03:42:56;98544.47;;;13.61;77.58
72560;BME280;62987;52.382;9.752;2022-09-27T03:45:24;98543.88;;;13.98;76.97
72560;BME280;62987;52.382;9.752;2022-09-27T03:47:52;98545.63;;;13.69;76.88
72560;BME280;62987;52.382;9.752;2022-09-27T03:50:21;98545.31;;;13.52;77.78
72560;BME280;62987;52.382;9.752;2022-09-27T03:52:49;98542.41;;;13.65;77.28
72560;BME280;62987;52.382;9.752;2022-09-27T03:55:18;98541.38;;;13.47;78.23
72560;BME280;62987;52.382;9.752;2022-09-27T03:57:46;98554.91;;;13.74;77.66
72560;BME280;62987;52.382;9.752;2022-09-27T04:00:16;98547.91;;;13.83;76.91
72560;BME280;62987;52.382;9.752;2022-09-27T04:02:44;98547.31;;;13.70;78.85
72560;BME280;62987;52.382;9.752;2022-09-27T04:05:35;98552.41;;;13.33;79.73
72560;BME280;62987;52.382;9.752;2022-09-27T04:08:12;98548.25;;;13.49;79.80
72560;BME280;62987;52.382;9.752;2022-09-27T04:10:42;98545.81;;;13.37;79.30
72560;BME280;62987;52.382;9.752;2022-09-27T04:13:10;98555.16;;;13.52;77.10
72560;BME280;62987;52.382;9.752;2022-09-27T04:15:46;98546.09;;;13.74;76.68
72560;BME280;62987;52.382;9.752;2022-09-27T04:18:21;98551.69;;;13.21;75.45
72560;BME280;62987;52.382;9.752;2022-09-27T04:21:27;98550.59;;;13.73;75.30
72560;BME280;62987;52.382;9.752;2022-09-27T04:23:56;98553.84;;;13.86;75.29
72560;BME280;62987;52.382;9.752;2022-09-27T04:26:26;98559.31;;;13.85;75.18
72560;BME280;62987;52.382;9.752;2022-09-27T04:29:00;98552.91;;;13.57;75.82
72560;BME280;62987;52.382;9.752;2022-09-27T04:31:28;98551.56;;;13.72;75.57
72560;BME280;62987;52.382;9.752;2022-09-27T04:34:18;98561.22;;;13.64;76.43
72560;BME280;62987;52.382;9.752;2022-09-27T04:37:12;98551.34;;;13.45;76.88
72560;BME280;62987;52.382;9.752;2022-09-27T04:39:44;98561.22;;;13.24;77.41
72560;BME280;62987;52.382;9.752;2022-09-27T04:42:13;98558.66;;;13.12;78.13
72560;BME280;62987;52.382;9.752;2022-09-27T04:44:42;98565.47;;;13.36;77.97
72560;BME280;62987;52.382;9.752;2022-09-27T04:47:11;98567.84;;;13.69;76.75
72560;BME280;62987;52.382;9.752;2022-09-27T04:49:40;98570.50;;;13.19;77.53
72560;BME280;62987;52.382;9.752;2022-09-27T04:52:08;98571.66;;;13.67;76.68
72560;BME280;62987;52.382;9.752;2022-09-27T04:54:36;98575.28;;;13.26;77.15
72560;BME280;62987;52.382;9.752;2022-09-27T04:57:15;98573.03;;;13.21;78.37
72560;BME280;62987;52.382;9.752;2022-09-27T04:59:44;98574.97;;;12.98;78.00
72560;BME280;62987;52.382;9.752;2022-09-27T05:02:13;98584.97;;;12.96;78.31
72560;BME280;62987;52.382;9.752;2022-09-27T05:05:00;98581.03;;;13.00;78.22
72560;BME280;62987;52.382;9.752;2022-09-27T05:07:34;98585.09;;;13.15;77.70
72560;BME280;62987;52.382;9.752;2022-09-27T05:10:08;98598.94;;;12.89;78.10
72560;BME280;62987;52.382;9.752;2022-09-27T05:12:37;98588.94;;;13.11;77.77
72560;BME280;62987;52.382;9.752;2022-09-27T05:15:07;98595.09;;;13.23;78.00
72560;BME280;62987;52.382;9.752;2022-09-27T05:17:54;98604.81;;;13.64;76.25
72560;BME280;62987;52.382;9.752;2022-09-27T05:20:42;98598.22;;;13.28;77.34
72560;BME280;62987;52.382;9.752;2022-09-27T05:23:22;98599.06;;;13.29;77.22
72560;BME280;62987;52.382;9.752;2022-09-27T05:25:50;98601.75;;;12.87;77.79
72560;BME280;62987;52.382;9.752;2022-09-27T05:28:22;98609.97;;;13.05;77.99
72560;BME280;62987;52.382;9.752;2022-09-27T05:30:51;98606.47;;;13.04;77.82
72560;BME280;62987;52.382;9.752;2022-09-27T05:33:20;98600.03;;;13.28;76.98
72560;BME280;62987;52.382;9.752;2022-09-27T05:35:52;98608.69;;;13.41;76.75
72560;BME280;62987;52.382;9.752;2022-09-27T05:38:24;98609.56;;;13.51;76.14
72560;BME280;62987;52.382;9.752;2022-09-27T05:40:55;98609.56;;;13.51;75.96
72560;BME280;62987;52.382;9.752;2022-09-27T05:43:26;98614.88;;;13.51;76.11
72560;BME280;62987;52.382;9.752;2022-09-27T05:45:57;98611.69;;;13.57;75.89
72560;BME280;62987;52.382;9.752;2022-09-27T05:48:27;98616.59;;;13.22;77.04
72560;BME280;62987;52.382;9.752;2022-09-27T05:51:03;98610.97;;;13.25;77.10
72560;BME280;62987;52.382;9.752;2022-09-27T05:53:33;98613.91;;;13.52;76.46
72560;BME280;62987;52.382;9.752;2022-09-27T05:56:04;98619.97;;;13.54;76.65
72560;BME280;62987;52.382;9.752;2022-09-27T05:58:52;98620.41;;;13.59;75.60
72560;BME280;62987;52.382;9.752;2022-09-27T06:01:22;98626.38;;;13.82;75.30
72560;BME280;62987;52.382;9.752;2022-09-27T06:04:13;98614.63;;;13.24;76.70
72560;BME280;62987;52.382;9.752;2022-09-27T06:07:02;98622.25;;;13.28;76.88
72560;BME280;62987;52.382;9.752;2022-09-27T06:09:30;98628.25;;;13.20;77.52
72560;BME280;62987;52.382;9.752;2022-09-27T06:11:58;98626.22;;;13.34;76.59
72560;BME280;62987;52.382;9.752;2022-09-27T06:14:28;98634.09;;;12.94;77.83
72560;BME280;62987;52.382;9.752;2022-09-27T06:17:05;98632.06;;;13.28;77.37
72560;BME280;62987;52.382;9.752;2022-09-27T06:19:36;98632.28;;;13.15;77.26
72560;BME280;62987;52.382;9.752;2022-09-27T06:22:04;98639.16;;;13.17;77.20
72560;BME280;62987;52.382;9.752;2022-09-27T06:24:46;98639.72;;;13.42;76.41
72560;BME280;62987;52.382;9.752;2022-09-27T06:27:19;98636.22;;;13.00;76.45
72560;BME280;62987;52.382;9.752;2022-09-27T06:30:07;98640.63;;;13.22;76.67
72560;BME280;62987;52.382;9.752;2022-09-27T06:32:54;98637.84;;;13.33;76.40
72560;BME280;62987;52.382;9.752;2022-09-27T06:35:34;98649.31;;;13.24;76.61
72560;BME280;62987;52.382;9.752;2022-09-27T06:38:03;98645.47;;;12.96;76.22
72560;BME280;62987;52.382;9.752;2022-09-27T06:40:33;98653.72;;;12.93;76.65
72560;BME280;62987;52.382;9.752;2022-09-27T06:43:17;98658.63;;;13.08;76.46
72560;BME280;62987;52.382;9.752;2022-09-27T06:46:22;98655.38;;;13.26;76.29
72560;BME280;62987;52.382;9.752;2022-09-27T06:49:13;98658.25;;;13.34;75.74
72560;BME280;62987;52.382;9.752;2022-09-27T06:51:42;98664.28;;;12.94;76.87
72560;BME280;62987;52.382;9.752;2022-09-27T06:54:11;98664.66;;;13.22;76.47
72560;BME280;62987;52.382;9.752;2022-09-27T06:56:39;98670.88;;;13.32;76.34
72560;BME280;62987;52.382;9.752;2022-09-27T06:59:07;98667.13;;;13.13;76.39
72560;BME280;62987;52.382;9.752;2022-09-27T07:02:15;98669.47;;;13.28;76.13
72560;BME280;62987;52.382;9.752;2022-09-27T07:05:07;98674.66;;;13.08;76.62
72560;BME280;62987;52.382;9.752;2022-09-27T07:07:56;98684.31;;;13.20;76.87
72560;BME280;62987;52.382;9.752;2022-09-27T07:10:27;98683.13;;;13.13;76.66
72560;BME280;62987;52.382;9.752;2022-09-27T07:12:56;98685.00;;;13.02;76.35
72560;BME280;62987;52.382;9.752;2022-09-27T07:15:24;98682.97;;;12.94;76.66
72560;BME280;62987;52.382;9.752;2022-09-27T07:17:58;98683.81;;;13.36;75.89
72560;BME280;62987;52.382;9.752;2022-09-27T07:20:28;98686.66;;;13.35;76.47
72560;BME280;62987;52.382;9.752;2022-09-27T07:22:57;98693.72;;;13.25;75.70
72560;BME280;62987;52.382;9.752;2022-09-27T07:25:25;98705.78;;;13.40;76.15
72560;BME280;62987;52.382;9.752;2022-09-27T07:27:54;98699.53;;;13.30;76.11
72560;BME280;62987;52.382;9.752;2022-09-27T07:30:22;98707.94;;;13.46;75.73
72560;BME280;62987;52.382;9.752;2022-09-27T07:32:57;98709.03;;;13.23;75.69
72560;BME280;62987;52.382;9.752;2022-09-27T07:35:26;98709.13;;;13.00;76.09
72560;BME280;62987;52.382;9.752;2022-09-27T07:37:55;98714.97;;;13.47;75.84
72560;BME280;62987;52.382;9.752;2022-09-27T07:40:25;98710.69;;;13.14;75.99
72560;BME280;62987;52.382;9.752;2022-09-27T07:42:54;98721.81;;;13.40;75.09
72560;BME280;62987;52.382;9.752;2022-09-27T07:45:23;98714.38;;;13.23;75.37
72560;BME280;62987;52.382;9.752;2022-09-27T07:48:15;98725.56;;;13.16;75.59
72560;BME280;62987;52.382;9.752;2022-09-27T07:51:06;98730.72;;;12.97;75.59
72560;BME280;62987;52.382;9.752;2022-09-27T07:53:45;98734.88;;;12.90;76.55
72560;BME280;62987;52.382;9.752;2022-09-27T07:56:32;98742.09;;;12.78;76.53
72560;BME280;62987;52.382;9.752;2022-09-27T07:59:01;98742.69;;;12.82;76.26
72560;BME280;62987;52.382;9.752;2022-09-27T08:01:29;98742.97;;;12.68;76.97
72560;BME280;62987;52.382;9.752;2022-09-27T08:03:58;98749.44;;;12.86;76.63
72560;BME280;62987;52.382;9.752;2022-09-27T08:06:27;98749.38;;;13.08;75.75
72560;BME280;62987;52.382;9.752;2022-09-27T08:08:57;98754.28;;;12.92;75.87
72560;BME280;62987;52.382;9.752;2022-09-27T08:11:26;98759.56;;;12.82;75.97
72560;BME280;62987;52.382;9.752;2022-09-27T08:13:54;98756.81;;;12.62;76.90
72560;BME280;62987;52.382;9.752;2022-09-27T08:16:27;98762.69;;;12.88;76.68
72560;BME280;62987;52.382;9.752;2022-09-27T08:19:16;98768.34;;;12.94;75.96
72560;BME280;62987;52.382;9.752;2022-09-27T08:21:55;98769.84;;;12.87;76.07
72560;BME280;62987;52.382;9.752;2022-09-27T08:24:34;98769.88;;;12.76;75.73
72560;BME280;62987;52.382;9.752;2022-09-27T08:27:13;98776.13;;;12.86;75.76
72560;BME280;62987;52.382;9.752;2022-09-27T08:30:07;98780.41;;;13.20;74.47
72560;BME280;62987;52.382;9.752;2022-09-27T08:32:35;98784.50;;;13.25;73.47
72560;BME280;62987;52.382;9.752;2022-09-27T08:35:08;98796.78;;;12.73;74.60
72560;BME280;62987;52.382;9.752;2022-09-27T08:37:36;98791.44;;;12.73;74.68
72560;BME280;62987;52.382;9.752;2022-09-27T08:40:05;98794.66;;;12.99;74.22
72560;BME280;62987;52.382;9.752;2022-09-27T08:42:38;98800.34;;;13.37;73.30
72560;BME280;62987;52.382;9.752;2022-09-27T08:45:12;98795.06;;;13.68;73.06
72560;BME280;62987;52.382;9.752;2022-09-27T08:47:46;98799.91;;;13.74;71.65
72560;BME280;62987;52.382;9.752;2022-09-27T08:50:24;98800.88;;;13.52;72.72
72560;BME280;62987;52.382;9.752;2022-09-27T08:52:57;98804.31;;;13.84;72.68
72560;BME280;62987;52.382;9.752;2022-09-27T08:55:31;98803.00;;;13.37;72.17
72560;BME280;62987;52.382;9.752;2022-09-27T08:58:12;98806.97;;;13.43;72.87
72560;BME280;62987;52.382;9.752;2022-09-27T09:00:41;98809.19;;;13.38;71.63
72560;BME280;62987;52.382;9.752;2022-09-27T09:03:16;98812.53;;;13.72;72.25
72560;BME280;62987;52.382;9.752;2022-09-27T09:05:54;98812.16;;;13.24;72.53
72560;BME280;62987;52.382;9.752;2022-09-27T09:08:32;98806.31;;;13.30;73.31
72560;BME280;62987;52.382;9.752;2022-09-27T09:11:17;98818.28;;;13.14;72.82
72560;BME280;62987;52.382;9.752;2022-09-27T09:14:29;98819.44;;;13.53;71.16
72560;BME280;62987;52.382;9.752;2022-09-27T09:17:10;98818.53;;;13.64;70.54
72560;BME280;62987;52.382;9.752;2022-09-27T09:20:18;98811.59;;;14.03;68.89
72560;BME280;62987;52.382;9.752;2022-09-27T09:23:27;98823.78;;;14.97;67.09
72560;BME280;62987;52.382;9.752;2022-09-27T09:26:06;98813.81;;;15.66;64.68
72560;BME280;62987;52.382;9.752;2022-09-27T09:28:48;98822.84;;;15.75;64.37
72560;BME280;62987;52.382;9.752;2022-09-27T09:31:27;98818.00;;;15.11;66.10
72560;BME280;62987;52.382;9.752;2022-09-27T09:34:04;98825.19;;;15.01;66.25
72560;BME280;62987;52.382;9.752;2022-09-27T09:36:40;98822.59;;;14.70;66.55
72560;BME280;62987;52.382;9.752;2022-09-27T09:39:15;98828.84;;;15.00;66.08
72560;BME280;62987;52.382;9.752;2022-09-27T09:41:55;98834.13;;;15.69;65.12
72560;BME280;62987;52.382;9.752;2022-09-27T09:44:31;98821.28;;;15.14;65.19
72560;BME280;62987;52.382;9.752;2022-09-27T09:47:03;98821.34;;;16.09;62.39
72560;BME280;62987;52.382;9.752;2022-09-27T09:49:41;98818.78;;;16.08;63.48
72560;BME280;62987;52.382;9.752;2022-09-27T09:52:14;98830.22;;;16.19;62.29
72560;BME280;62987;52.382;9.752;2022-09-27T09:54:50;98822.41;;;15.22;62.99
72560;BME280;62987;52.382;9.752;2022-09-27T09:57:22;98817.31;;;15.18;64.70
72560;BME280;62987;52.382;9.752;2022-09-27T09:59:56;98823.22;;;14.93;65.50
72560;BME280;62987;52.382;9.752;2022-09-27T10:02:30;98811.44;;;15.53;64.18
72560;BME280;62987;52.382;9.752;2022-09-27T10:05:09;98825.22;;;15.87;62.84
72560;BME280;62987;52.382;9.752;2022-09-27T10:07:40;98813.00;;;14.58;65.53
72560;BME280;62987;52.382;9.752;2022-09-27T10:10:13;98819.69;;;14.93;64.79
72560;BME280;62987;52.382;9.752;2022-09-27T10:12:54;98816.16;;;14.83;64.47
72560;BME280;62987;52.382;9.752;2022-09-27T10:15:29;98801.53;;;15.06;65.47
72560;BME280;62987;52.382;9.752;2022-09-27T10:17:59;98823.53;;;15.19;63.41
72560;BME280;62987;52.382;9.752;2022-09-27T10:20:30;98820.88;;;15.67;62.79
72560;BME280;62987;52.382;9.752;2022-09-27T10:23:05;98815.22;;;15.41;63.41
72560;BME280;62987;52.382;9.752;2022-09-27T10:25:51;98825.47;;;14.98;63.82
72560;BME280;62987;52.382;9.752;2022-09-27T10:28:41;98827.16;;;14.89;67.27
72560;BME280;62987;52.382;9.752;2022-09-27T10:31:13;98836.53;;;14.74;66.79
72560;BME280;62987;52.382;9.752;2022-09-27T10:34:16;98839.59;;;14.50;69.20
72560;BME280;62987;52.382;9.752;2022-09-27T10:37:01;98835.22;;;13.77;70.36
72560;BME280;62987;52.382;9.752;2022-09-27T10:39:32;98830.28;;;13.73;71.83
72560;BME280;62987;52.382;9.752;2022-09-27T10:42:19;98837.34;;;14.04;74.69
72560;BME280;62987;52.382;9.752;2022-09-27T10:44:47;98839.50;;;14.10;72.75
72560;BME280;62987;52.382;9.752;2022-09-27T10:47:29;98842.47;;;13.86;73.06
72560;BME280;62987;52.382;9.752;2022-09-27T10:50:19;98838.56;;;13.38;72.57
72560;BME280;62987;52.382;9.752;2022-09-27T10:53:35;98849.34;;;13.68;72.92
72560;BME280;62987;52.382;9.752;2022-09-27T10:56:19;98842.56;;;14.36;71.85
72560;BME280;62987;52.382;9.752;2022-09-27T10:58:50;98837.78;;;14.60;68.71
72560;BME280;62987;52.382;9.752;2022-09-27T11:01:20;98843.59;;;14.14;68.46
72560;BME280;62987;52.382;9.752;2022-09-27T11:04:20;98841.25;;;15.10;65.45
72560;BME280;62987;52.382;9.752;2022-09-27T11:06:50;98838.50;;;15.79;64.63
72560;BME280;62987;52.382;9.752;2022-09-27T11:09:21;98836.25;;;16.68;60.62
72560;BME280;62987;52.382;9.752;2022-09-27T11:12:07;98837.38;;;16.93;61.19
72560;BME280;62987;52.382;9.752;2022-09-27T11:14:38;98830.31;;;16.92;61.26
72560;BME280;62987;52.382;9.752;2022-09-27T11:17:11;98833.47;;;16.87;60.60
72560;BME280;62987;52.382;9.752;2022-09-27T11:19:53;98833.00;;;16.27;62.84
72560;BME280;62987;52.382;9.752;2022-09-27T11:22:33;98846.91;;;16.13;64.42
72560;BME280;62987;52.382;9.752;2022-09-27T11:25:12;98841.03;;;15.23;64.57
72560;BME280;62987;52.382;9.752;2022-09-27T11:27:55;98862.63;;;14.82;63.41
72560;BME280;62987;52.382;9.752;2022-09-27T11:30:34;98839.22;;;14.64;63.10
72560;BME280;62987;52.382;9.752;2022-09-27T11:36:33;98855.53;;;14.61;64.03
72560;BME280;62987;52.382;9.752;2022-09-27T11:39:08;98867.41;;;14.38;64.73
72560;BME280;62987;52.382;9.752;2022-09-27T11:41:49;98861.47;;;14.14;66.05
72560;BME280;62987;52.382;9.752;2022-09-27T11:44:51;98875.44;;;14.38;67.43
72560;BME280;62987;52.382;9.752;2022-09-27T11:47:52;98877.50;;;14.14;68.04
72560;BME280;62987;52.382;9.752;2022-09-27T11:51:02;98879.06;;;13.54;72.40
72560;BME280;62987;52.382;9.752;2022-09-27T11:53:46;98877.88;;;13.47;71.98
72560;BME280;62987;52.382;9.752;2022-09-27T11:56:30;98892.38;;;13.11;72.87
72560;BME280;62987;52.382;9.752;2022-09-27T11:59:13;98887.00;;;12.79;70.52
72560;BME280;62987;52.382;9.752;2022-09-27T12:01:55;98895.88;;;12.68;71.08
72560;BME280;62987;52.382;9.752;2022-09-27T12:04:46;98889.28;;;12.95;73.04
72560;BME280;62987;52.382;9.752;2022-09-27T12:07:24;98896.56;;;12.93;71.36
72560;BME280;62987;52.382;9.752;2022-09-27T12:10:01;98900.34;;;12.68;71.64
72560;BME280;62987;52.382;9.752;2022-09-27T12:12:34;98897.88;;;12.98;73.74
72560;BME280;62987;52.382;9.752;2022-09-27T12:15:13;98907.63;;;12.44;73.51
72560;BME280;62987;52.382;9.752;2022-09-27T12:17:44;98907.72;;;12.87;73.62
72560;BME280;62987;52.382;9.752;2022-09-27T12:20:19;98905.78;;;12.77;75.23
72560;BME280;62987;52.382;9.752;2022-09-27T12:22:53;98919.00;;;12.79;73.73
72560;BME280;62987;52.382;9.752;2022-09-27T12:26:03;98915.00;;;12.51;74.15
72560;BME280;62987;52.382;9.752;2022-09-27T12:28:37;98920.19;;;12.19;74.81
72560;BME280;62987;52.382;9.752;2022-09-27T12:31:15;98910.28;;;12.44;74.51
72560;BME280;62987;52.382;9.752;2022-09-27T12:34:10;98918.50;;;12.85;73.15
72560;BME280;62987;52.382;9.752;2022-09-27T12:36:51;98914.44;;;12.70;73.61
72560;BME280;62987;52.382;9.752;2022-09-27T12:39:23;98915.84;;;12.52;74.28
72560;BME280;62987;52.382;9.752;2022-09-27T12:42:11;98915.81;;;12.07;73.61
72560;BME280;62987;52.382;9.752;2022-09-27T12:44:44;98920.31;;;12.18;74.13
72560;BME280;62987;52.382;9.752;2022-09-27T12:47:21;98916.72;;;12.41;72.67
72560;BME280;62987;52.382;9.752;2022-09-27T12:49:58;98922.41;;;12.36;73.32
72560;BME280;62987;52.382;9.752;2022-09-27T12:52:34;98915.59;;;12.32;73.84
72560;BME280;62987;52.382;9.752;2022-09-27T12:55:14;98925.50;;;12.19;73.25
72560;BME280;62987;52.382;9.752;2022-09-27T12:58:05;98925.31;;;12.45;74.15
72560;BME280;62987;52.382;9.752;2022-09-27T13:00:40;98923.56;;;11.99;74.52
72560;BME280;62987;52.382;9.752;2022-09-27T13:03:21;98907.84;;;12.40;75.07
72560;BME280;62987;52.382;9.752;2022-09-27T13:06:17;98925.34;;;12.56;74.14
72560;BME280;62987;52.382;9.752;2022-09-27T13:09:02;98922.28;;;12.60;74.90
72560;BME280;62987;52.382;9.752;2022-09-27T13:11:46;98933.94;;;12.48;74.83
72560;BME280;62987;52.382;9.752;2022-09-27T13:14:23;98924.38;;;12.57;76.10
72560;BME280;62987;52.382;9.752;2022-09-27T13:16:53;98927.16;;;12.55;74.53
72560;BME280;62987;52.382;9.752;2022-09-27T13:19:38;98926.03;;;12.58;73.76
72560;BME280;62987;52.382;9.752;2022-09-27T13:22:36;98927.13;;;12.66;74.08
72560;BME280;62987;52.382;9.752;2022-09-27T13:25:49;98929.81;;;12.66;74.13
72560;BME280;62987;52.382;9.752;2022-09-27T13:28:57;98925.91;;;12.93;74.14
72560;BME280;62987;52.382;9.752;2022-09-27T13:35:10;98920.44;;;13.05;73.67
72560;BME280;62987;52.382;9.752;2022-09-27T13:37:47;98923.69;;;13.31;74.27
72560;BME280;62987;52.382;9.752;2022-09-27T13:40:28;98924.50;;;13.43;73.21
72560;BME280;62987;52.382;9.752;2022-09-27T13:43:50;98929.28;;;13.28;72.70
72560;BME280;62987;52.382;9.752;2022-09-27T13:46:32;98930.53;;;13.56;72.98
72560;BME280;62987;52.382;9.752;2022-09-27T13:49:04;98928.34;;;13.61;72.60
72560;BME280;62987;52.382;9.752;2022-09-27T13:52:04;98929.59;;;13.46;72.23
72560;BME280;62987;52.382;9.752;2022-09-27T13:54:52;98924.94;;;13.59;72.32
72560;BME280;62987;52.382;9.752;2022-09-27T13:57:50;98924.50;;;13.43;72.51
72560;BME280;62987;52.382;9.752;2022-09-27T14:00:28;98922.66;;;13.54;71.14
72560;BME280;62987;52.382;9.752;2022-09-27T14:03:01;98919.94;;;13.66;72.04